createdAt,value
2023-01-27T00:01:53.462Z,26.13
2023-01-27T00:04:22.057Z,23.48
2023-01-27T00:06:52.046Z,26.27
2023-01-27T00:09:20.593Z,29.10
2023-01-27T00:12:06.786Z,28.33
2023-01-27T00:14:35.337Z,28.30
2023-01-27T00:17:04.032Z,24.85
2023-01-27T00:19:33.242Z,27.77
2023-01-27T00:22:21.262Z,26.88
2023-01-27T00:24:49.873Z,26.75
2023-01-27T00:27:19.105Z,26.02
2023-01-27T00:29:48.965Z,25.38
2023-01-27T00:32:35.814Z,25.77
2023-01-27T00:35:05.362Z,25.58
2023-01-27T00:37:35.978Z,25.83
2023-01-27T00:40:09.229Z,24.42
2023-01-27T00:42:37.820Z,23.58
2023-01-27T00:45:40.654Z,24.98
2023-01-27T00:48:09.451Z,23.20
2023-01-27T00:50:38.760Z,23.23
2023-01-27T00:53:08.974Z,24.75
2023-01-27T00:55:37.527Z,23.50
2023-01-27T00:58:06.536Z,23.08
2023-01-27T01:00:35.497Z,24.50
2023-01-27T01:03:04.500Z,22.58
2023-01-27T01:05:33.290Z,22.38
2023-01-27T01:08:02.159Z,22.38
2023-01-27T01:10:32.121Z,22.83
2023-01-27T01:13:01.524Z,21.45
2023-01-27T01:15:30.304Z,21.45
2023-01-27T01:17:59.068Z,21.35
2023-01-27T01:20:28.002Z,20.67
2023-01-27T01:22:57.278Z,21.70
2023-01-27T01:25:26.699Z,20.77
2023-01-27T01:27:56.978Z,19.50
2023-01-27T01:30:26.426Z,21.10
2023-01-27T01:32:55.601Z,19.80
2023-01-27T01:35:25.861Z,20.08
2023-01-27T01:37:55.804Z,19.55
2023-01-27T01:40:25.872Z,19.95
2023-01-27T01:43:01.213Z,19.95
2023-01-27T01:45:47.455Z,19.35
2023-01-27T01:48:21.078Z,19.83
2023-01-27T01:50:56.008Z,18.50
2023-01-27T01:53:31.501Z,18.17
2023-01-27T01:56:07.717Z,20.13
2023-01-27T01:58:38.382Z,19.33
2023-01-27T02:01:08.904Z,20.00
2023-01-27T02:03:41.432Z,19.25
2023-01-27T02:06:11.670Z,17.73
2023-01-27T02:08:43.244Z,17.67
2023-01-27T02:11:12.556Z,19.45
2023-01-27T02:13:44.254Z,18.30
2023-01-27T02:16:14.183Z,18.60
2023-01-27T02:18:43.982Z,17.98
2023-01-27T02:21:12.844Z,19.58
2023-01-27T02:23:57.946Z,18.25
2023-01-27T02:26:32.239Z,18.77
2023-01-27T02:29:05.086Z,17.90
2023-01-27T02:31:34.299Z,17.70
2023-01-27T02:34:06.188Z,17.77
2023-01-27T02:36:39.778Z,17.08
2023-01-27T02:39:11.408Z,17.08
2023-01-27T02:41:44.925Z,14.55
2023-01-27T02:44:14.344Z,16.27
2023-01-27T02:46:43.354Z,14.25
2023-01-27T02:49:12.900Z,14.85
2023-01-27T02:51:42.902Z,14.85
2023-01-27T02:54:14.053Z,14.30
2023-01-27T02:56:45.189Z,14.15
2023-01-27T02:59:17.097Z,13.90
2023-01-27T03:01:46.137Z,13.35
2023-01-27T03:04:15.900Z,13.48
2023-01-27T03:06:44.679Z,12.73
2023-01-27T03:09:14.453Z,13.55
2023-01-27T03:12:02.363Z,12.30
2023-01-27T03:14:48.995Z,11.93
2023-01-27T03:17:35.736Z,12.07
2023-01-27T03:20:06.048Z,11.35
2023-01-27T03:22:35.250Z,11.18
2023-01-27T03:25:04.725Z,11.65
2023-01-27T03:27:35.577Z,9.88
2023-01-27T03:30:22.886Z,11.10
2023-01-27T03:33:11.135Z,10.52
2023-01-27T03:36:13.912Z,10.25
2023-01-27T03:39:09.423Z,10.43
2023-01-27T03:41:56.411Z,10.85
2023-01-27T03:44:47.634Z,10.15
2023-01-27T03:47:16.581Z,10.35
2023-01-27T03:49:45.380Z,9.88
2023-01-27T03:52:14.201Z,10.15
2023-01-27T03:54:44.221Z,9.48
2023-01-27T03:57:13.231Z,9.90
2023-01-27T03:59:43.661Z,9.25
2023-01-27T04:02:30.092Z,9.20
2023-01-27T04:05:16.460Z,9.00
2023-01-27T04:07:45.553Z,8.43
2023-01-27T04:10:14.460Z,8.50
2023-01-27T04:12:45.595Z,8.45
2023-01-27T04:15:22.069Z,8.50
2023-01-27T04:17:51.366Z,8.30
2023-01-27T04:20:20.360Z,8.43
2023-01-27T04:22:49.207Z,8.70
2023-01-27T04:25:18.503Z,8.65
2023-01-27T04:27:47.574Z,8.68
2023-01-27T04:30:17.148Z,8.98
2023-01-27T04:32:47.470Z,9.75
2023-01-27T04:35:17.143Z,8.25
2023-01-27T04:37:45.960Z,8.38
2023-01-27T04:40:15.196Z,7.95
2023-01-27T04:42:43.993Z,7.88
2023-01-27T04:45:17.052Z,8.50
2023-01-27T04:47:47.145Z,7.82
2023-01-27T04:50:16.236Z,7.65
2023-01-27T04:52:45.562Z,8.40
2023-01-27T04:55:15.234Z,8.38
2023-01-27T04:57:44.139Z,7.70
2023-01-27T05:00:16.597Z,7.13
2023-01-27T05:02:47.972Z,6.55
2023-01-27T05:05:16.843Z,7.70
2023-01-27T05:07:45.529Z,6.60
2023-01-27T05:10:14.238Z,6.60
2023-01-27T05:12:42.960Z,7.53
2023-01-27T05:15:12.224Z,6.70
2023-01-27T05:17:41.235Z,6.88
2023-01-27T05:20:12.377Z,6.75
2023-01-27T05:22:42.484Z,6.55
2023-01-27T05:25:11.954Z,6.03
2023-01-27T05:27:41.035Z,6.53
2023-01-27T05:30:11.250Z,6.53
2023-01-27T05:32:40.030Z,6.60
2023-01-27T05:35:09.375Z,6.05
2023-01-27T05:37:39.334Z,5.82
2023-01-27T05:40:08.870Z,6.30
2023-01-27T05:42:37.512Z,6.85
2023-01-27T05:45:07.325Z,6.55
2023-01-27T05:47:35.932Z,6.78
2023-01-27T05:50:04.811Z,6.65
2023-01-27T05:52:33.562Z,6.70
2023-01-27T05:55:03.700Z,6.68
2023-01-27T05:57:32.525Z,6.82
2023-01-27T06:00:01.448Z,7.82
2023-01-27T06:02:30.582Z,6.82
2023-01-27T06:04:59.493Z,7.10
2023-01-27T06:07:28.415Z,7.53
2023-01-27T06:09:57.192Z,7.82
2023-01-27T06:12:27.570Z,7.68
2023-01-27T06:14:59.509Z,8.05
2023-01-27T06:17:28.474Z,8.15
2023-01-27T06:19:57.029Z,7.07
2023-01-27T06:22:25.721Z,8.20
2023-01-27T06:24:54.569Z,7.53
2023-01-27T06:27:23.406Z,7.07
2023-01-27T06:29:53.539Z,7.40
2023-01-27T06:32:22.435Z,7.38
2023-01-27T06:34:51.143Z,7.10
2023-01-27T06:37:20.011Z,7.60
2023-01-27T06:39:48.764Z,6.85
2023-01-27T06:42:17.340Z,7.10
2023-01-27T06:44:46.203Z,8.05
2023-01-27T06:47:16.468Z,7.90
2023-01-27T06:49:45.173Z,7.13
2023-01-27T06:52:14.004Z,7.10
2023-01-27T06:54:44.366Z,7.20
2023-01-27T06:57:13.219Z,7.32
2023-01-27T06:59:42.283Z,7.75
2023-01-27T07:02:13.143Z,7.07
2023-01-27T07:04:43.219Z,7.72
2023-01-27T07:07:11.899Z,7.50
2023-01-27T07:09:52.011Z,7.07
2023-01-27T07:12:21.517Z,7.68
2023-01-27T07:14:50.301Z,8.68
2023-01-27T07:17:21.035Z,8.35
2023-01-27T07:19:51.262Z,8.13
2023-01-27T07:22:20.228Z,7.68
2023-01-27T07:24:49.020Z,8.32
2023-01-27T07:27:17.703Z,9.30
2023-01-27T07:29:46.412Z,9.13
2023-01-27T07:32:15.233Z,8.60
2023-01-27T07:34:44.155Z,8.93
2023-01-27T07:37:14.285Z,8.43
2023-01-27T07:39:43.241Z,8.63
2023-01-27T07:42:12.127Z,9.18
2023-01-27T07:44:40.747Z,8.63
2023-01-27T07:47:11.964Z,8.73
2023-01-27T07:49:40.665Z,8.95
2023-01-27T07:52:09.349Z,8.80
2023-01-27T07:54:39.524Z,9.30
2023-01-27T07:57:08.470Z,9.95
2023-01-27T07:59:37.186Z,8.75
2023-01-27T08:02:05.979Z,8.52
2023-01-27T08:04:43.408Z,9.52
2023-01-27T08:07:19.868Z,8.48
2023-01-27T08:09:49.947Z,8.57
2023-01-27T08:12:18.532Z,8.90
2023-01-27T08:14:47.211Z,9.05
2023-01-27T08:17:16.065Z,9.10
2023-01-27T08:19:44.795Z,8.25
2023-01-27T08:22:19.708Z,8.27
2023-01-27T08:24:50.144Z,8.30
2023-01-27T08:27:19.234Z,8.50
2023-01-27T08:29:49.255Z,7.55
2023-01-27T08:32:20.220Z,8.32
2023-01-27T08:34:48.742Z,7.40
2023-01-27T08:37:19.742Z,7.85
2023-01-27T08:39:50.084Z,8.10
2023-01-27T08:42:18.648Z,7.32
2023-01-27T08:44:47.538Z,7.35
2023-01-27T08:47:16.573Z,7.65
2023-01-27T08:49:46.021Z,7.68
2023-01-27T08:52:14.915Z,7.32
2023-01-27T08:54:43.760Z,6.97
2023-01-27T08:57:13.751Z,7.07
2023-01-27T08:59:42.548Z,7.07
2023-01-27T09:02:13.935Z,7.30
2023-01-27T09:04:44.382Z,7.35
2023-01-27T09:07:13.155Z,6.78
2023-01-27T09:09:41.953Z,6.63
2023-01-27T09:12:10.994Z,7.25
2023-01-27T09:14:41.213Z,6.75
2023-01-27T09:17:09.970Z,6.20
2023-01-27T09:19:38.673Z,7.28
2023-01-27T09:22:07.300Z,6.57
2023-01-27T09:24:36.003Z,6.78
2023-01-27T09:27:04.967Z,6.38
2023-01-27T09:29:33.605Z,6.60
2023-01-27T09:32:03.825Z,6.32
2023-01-27T09:34:32.658Z,5.82
2023-01-27T09:37:03.977Z,5.80
2023-01-27T09:39:36.997Z,5.90
2023-01-27T09:42:36.110Z,6.03
2023-01-27T09:45:22.130Z,5.60
2023-01-27T09:48:11.714Z,4.80
2023-01-27T09:50:50.903Z,4.30
2023-01-27T09:53:54.372Z,4.47
2023-01-27T09:56:33.497Z,4.32
2023-01-27T09:59:15.178Z,4.07
2023-01-27T10:01:55.615Z,4.28
2023-01-27T10:04:45.169Z,3.97
2023-01-27T10:07:46.941Z,3.80
2023-01-27T10:10:29.758Z,3.60
2023-01-27T10:13:17.835Z,3.97
2023-01-27T10:15:58.571Z,3.35
2023-01-27T10:18:43.448Z,3.47
2023-01-27T10:21:21.273Z,3.50
2023-01-27T10:23:59.161Z,3.00
2023-01-27T10:26:35.391Z,2.75
2023-01-27T10:29:11.114Z,2.95
2023-01-27T10:31:47.500Z,2.83
2023-01-27T10:34:25.848Z,2.67
2023-01-27T10:37:06.840Z,2.58
2023-01-27T10:39:46.937Z,3.22
2023-01-27T10:42:23.931Z,3.00
2023-01-27T10:45:13.708Z,2.70
2023-01-27T10:47:58.408Z,2.75
2023-01-27T10:50:31.907Z,2.75
2023-01-27T10:53:08.469Z,2.95
2023-01-27T10:55:43.160Z,2.95
2023-01-27T10:58:17.349Z,3.88
2023-01-27T11:01:20.227Z,1.75
2023-01-27T11:03:42.724Z,2.40
2023-01-27T11:06:16.062Z,2.28
2023-01-27T11:08:48.912Z,1.52
2023-01-27T11:11:37.948Z,1.52
2023-01-27T11:14:17.572Z,1.23
2023-01-27T11:16:50.314Z,1.10
2023-01-27T11:19:28.596Z,1.30
2023-01-27T11:22:07.625Z,1.30
2023-01-27T11:24:45.499Z,1.08
2023-01-27T11:27:28.395Z,1.10
2023-01-27T11:30:02.584Z,1.25
2023-01-27T11:32:39.827Z,1.25
2023-01-27T11:35:11.868Z,1.20
2023-01-27T11:37:42.786Z,1.55
2023-01-27T11:40:19.052Z,1.25
2023-01-27T11:42:47.869Z,1.30
2023-01-27T11:45:18.629Z,1.35
2023-01-27T11:47:50.319Z,1.45
2023-01-27T11:50:21.719Z,1.17
2023-01-27T11:52:52.713Z,1.10
2023-01-27T11:55:26.534Z,1.05
2023-01-27T11:58:03.216Z,1.27
2023-01-27T12:00:45.876Z,1.30
2023-01-27T12:03:21.496Z,1.35
2023-01-27T12:05:55.932Z,1.40
2023-01-27T12:08:42.541Z,1.10
2023-01-27T12:11:23.905Z,1.40
2023-01-27T12:13:57.846Z,1.50
2023-01-27T12:16:34.916Z,1.35
2023-01-27T12:19:06.156Z,1.23
2023-01-27T12:21:39.096Z,1.42
2023-01-27T12:24:22.094Z,1.30
2023-01-27T12:26:53.383Z,1.65
2023-01-27T12:29:26.960Z,2.05
2023-01-27T12:31:58.595Z,1.70
2023-01-27T12:34:32.654Z,1.55
2023-01-27T12:37:03.211Z,1.90
2023-01-27T12:39:43.124Z,2.03
2023-01-27T12:42:36.631Z,2.00
2023-01-27T12:45:30.226Z,2.05
2023-01-27T12:48:01.907Z,1.75
2023-01-27T12:50:33.679Z,1.80
2023-01-27T12:53:10.345Z,1.70
2023-01-27T12:55:42.344Z,1.75
2023-01-27T12:58:30.865Z,1.50
2023-01-27T13:01:01.651Z,1.65
2023-01-27T13:03:31.176Z,2.03
2023-01-27T13:06:01.148Z,1.77
2023-01-27T13:08:34.781Z,1.50
2023-01-27T13:11:05.013Z,1.60
2023-01-27T13:13:35.567Z,1.50
2023-01-27T13:16:09.449Z,1.83
2023-01-27T13:18:40.849Z,1.55
2023-01-27T13:21:15.225Z,1.60
2023-01-27T13:23:44.421Z,1.77
2023-01-27T13:26:18.792Z,1.10
2023-01-27T13:28:55.062Z,1.35
2023-01-27T13:31:43.577Z,1.40
2023-01-27T13:34:23.908Z,1.10
2023-01-27T13:36:57.804Z,0.80
2023-01-27T13:39:35.152Z,1.20
2023-01-27T13:42:13.569Z,1.05
2023-01-27T13:44:47.802Z,0.93
2023-01-27T13:47:21.515Z,0.85
2023-01-27T13:49:56.901Z,1.20
2023-01-27T13:52:26.291Z,1.23
2023-01-27T13:54:55.341Z,0.95
2023-01-27T13:57:48.223Z,0.93
2023-01-27T14:00:23.958Z,1.00
2023-01-27T14:03:24.575Z,1.17
2023-01-27T14:06:10.555Z,0.90
2023-01-27T14:08:58.477Z,1.00
2023-01-27T14:11:35.280Z,1.10
2023-01-27T14:14:43.620Z,0.98
2023-01-27T14:17:36.659Z,1.30
2023-01-27T14:20:21.097Z,1.20
2023-01-27T14:23:02.422Z,1.00
2023-01-27T14:25:38.709Z,1.40
2023-01-27T14:28:20.190Z,1.40
2023-01-27T14:30:55.400Z,1.35
2023-01-27T14:33:47.962Z,1.95
2023-01-27T14:36:21.337Z,1.02
2023-01-27T14:39:03.481Z,1.20
2023-01-27T14:41:38.019Z,1.58
2023-01-27T14:44:17.716Z,1.23
2023-01-27T14:46:58.798Z,1.80
2023-01-27T14:49:42.028Z,1.50
2023-01-27T14:52:22.236Z,1.20
2023-01-27T14:55:03.649Z,1.17
2023-01-27T14:57:41.502Z,1.50
2023-01-27T15:00:31.278Z,1.55
2023-01-27T15:03:17.057Z,1.38
2023-01-27T15:06:03.771Z,1.42
2023-01-27T15:08:41.064Z,1.55
2023-01-27T15:11:34.365Z,1.30
2023-01-27T15:14:20.499Z,1.60
2023-01-27T15:17:00.871Z,1.45
2023-01-27T15:19:52.061Z,1.65
2023-01-27T15:22:46.789Z,1.40
2023-01-27T15:25:33.146Z,1.20
2023-01-27T15:28:02.912Z,1.30
2023-01-27T15:30:34.677Z,1.50
2023-01-27T15:33:03.474Z,1.50
2023-01-27T15:35:36.362Z,1.40
2023-01-27T15:38:36.478Z,1.50
2023-01-27T15:41:13.202Z,1.42
2023-01-27T15:44:02.791Z,1.40
2023-01-27T15:46:34.969Z,1.42
2023-01-27T15:49:05.629Z,1.33
2023-01-27T15:51:37.856Z,1.60
2023-01-27T15:54:13.174Z,1.27
2023-01-27T15:56:47.677Z,1.30
2023-01-27T15:59:19.910Z,1.58
2023-01-27T16:01:50.190Z,1.27
2023-01-27T16:04:25.158Z,1.60
2023-01-27T16:07:01.986Z,1.50
2023-01-27T16:09:41.164Z,1.08
2023-01-27T16:12:36.805Z,1.48
2023-01-27T16:15:31.840Z,1.60
2023-01-27T16:18:25.206Z,1.35
2023-01-27T16:20:59.361Z,1.60
2023-01-27T16:23:40.355Z,2.22
2023-01-27T16:26:28.538Z,1.52
2023-01-27T16:29:12.330Z,1.60
2023-01-27T16:31:41.996Z,1.42
2023-01-27T16:34:23.200Z,1.50
2023-01-27T16:37:02.069Z,1.17
2023-01-27T16:39:36.960Z,1.40
2023-01-27T16:42:07.973Z,1.48
2023-01-27T16:44:41.329Z,1.60
2023-01-27T16:47:20.649Z,2.05
2023-01-27T16:49:53.169Z,1.90
2023-01-27T16:52:40.700Z,2.05
2023-01-27T16:55:21.772Z,2.05
2023-01-27T16:57:53.077Z,2.30
2023-01-27T17:00:24.330Z,1.90
2023-01-27T17:02:54.975Z,1.88
2023-01-27T17:05:24.135Z,1.63
2023-01-27T17:08:16.922Z,1.63
2023-01-27T17:10:50.884Z,1.75
2023-01-27T17:13:34.150Z,1.85
2023-01-27T17:16:07.050Z,1.90
2023-01-27T17:18:51.883Z,1.85
2023-01-27T17:21:32.858Z,1.92
2023-01-27T17:24:07.197Z,2.78
2023-01-27T17:26:36.942Z,2.70
2023-01-27T17:29:07.372Z,2.30
2023-01-27T17:31:39.464Z,2.20
2023-01-27T17:34:16.342Z,2.30
2023-01-27T17:37:06.192Z,2.33
2023-01-27T17:39:35.297Z,2.63
2023-01-27T17:42:05.038Z,3.22
2023-01-27T17:44:35.498Z,2.83
2023-01-27T17:47:06.616Z,3.10
2023-01-27T17:49:35.480Z,2.70
2023-01-27T17:52:09.211Z,2.67
2023-01-27T17:54:39.418Z,2.38
2023-01-27T17:57:13.235Z,2.92
2023-01-27T17:59:47.105Z,3.08
2023-01-27T18:02:21.007Z,2.65
2023-01-27T18:04:52.185Z,2.95
2023-01-27T18:07:21.185Z,2.42
2023-01-27T18:09:54.588Z,2.47
2023-01-27T18:12:32.025Z,2.83
2023-01-27T18:15:38.555Z,3.05
2023-01-27T18:18:19.761Z,3.17
2023-01-27T18:20:53.644Z,2.90
2023-01-27T18:23:27.967Z,2.88
2023-01-27T18:26:05.331Z,3.30
2023-01-27T18:28:36.355Z,2.95
2023-01-27T18:31:14.802Z,3.20
2023-01-27T18:33:44.459Z,3.55
2023-01-27T18:36:22.080Z,3.40
2023-01-27T18:38:51.789Z,4.00
2023-01-27T18:41:24.962Z,3.45
2023-01-27T18:43:53.786Z,3.58
2023-01-27T18:46:26.106Z,4.30
2023-01-27T18:48:55.842Z,4.72
2023-01-27T18:51:24.459Z,5.85
2023-01-27T18:53:53.172Z,5.07
2023-01-27T18:56:21.907Z,5.40
2023-01-27T18:58:50.650Z,4.78
2023-01-27T19:01:24.577Z,4.78
2023-01-27T19:03:57.295Z,4.60
2023-01-27T19:06:27.330Z,4.07
2023-01-27T19:08:56.179Z,3.78
2023-01-27T19:11:24.881Z,4.63
2023-01-27T19:13:53.595Z,4.30
2023-01-27T19:16:26.313Z,4.32
2023-01-27T19:18:55.367Z,4.53
2023-01-27T19:21:24.410Z,4.25
2023-01-27T19:23:53.238Z,3.90
2023-01-27T19:26:24.045Z,3.45
2023-01-27T19:28:55.240Z,4.28
2023-01-27T19:31:25.863Z,4.55
2023-01-27T19:33:56.733Z,4.38
2023-01-27T19:36:30.100Z,4.65
2023-01-27T19:39:02.569Z,4.70
2023-01-27T19:41:31.533Z,4.85
2023-01-27T19:44:00.859Z,4.93
2023-01-27T19:46:32.270Z,4.90
2023-01-27T19:49:01.057Z,5.20
2023-01-27T19:51:29.921Z,5.05
2023-01-27T19:53:59.099Z,4.70
2023-01-27T19:56:32.591Z,4.75
2023-01-27T19:59:01.791Z,4.88
2023-01-27T20:01:32.124Z,4.75
2023-01-27T20:04:00.953Z,4.78
2023-01-27T20:06:32.190Z,4.70
2023-01-27T20:09:03.445Z,4.95
2023-01-27T20:11:35.412Z,4.72
2023-01-27T20:14:05.800Z,5.95
2023-01-27T20:16:36.024Z,6.93
2023-01-27T20:19:04.816Z,6.05
2023-01-27T20:21:34.470Z,4.70
2023-01-27T20:24:03.665Z,5.72
2023-01-27T20:26:32.648Z,5.15
2023-01-27T20:29:01.482Z,5.28
2023-01-27T20:31:30.375Z,5.55
2023-01-27T20:34:03.450Z,5.63
2023-01-27T20:36:32.176Z,5.43
2023-01-27T20:39:00.733Z,4.93
2023-01-27T20:41:29.350Z,5.55
2023-01-27T20:44:00.286Z,5.57
2023-01-27T20:46:30.199Z,5.03
2023-01-27T20:49:01.825Z,4.68
2023-01-27T20:51:31.824Z,5.05
2023-01-27T20:54:00.754Z,4.65
2023-01-27T20:56:29.336Z,5.00
2023-01-27T20:58:57.874Z,5.00
2023-01-27T21:01:26.560Z,4.72
2023-01-27T21:03:55.138Z,5.47
2023-01-27T21:06:24.529Z,4.85
2023-01-27T21:08:54.478Z,5.25
2023-01-27T21:11:23.169Z,5.47
2023-01-27T21:13:53.182Z,6.03
2023-01-27T21:16:22.601Z,6.15
2023-01-27T21:18:51.734Z,6.15
2023-01-27T21:21:24.075Z,5.57
2023-01-27T21:23:54.448Z,6.22
2023-01-27T21:26:23.823Z,5.43
2023-01-27T21:28:52.867Z,6.20
2023-01-27T21:31:24.254Z,6.00
2023-01-27T21:33:53.256Z,5.75
2023-01-27T21:36:22.053Z,5.93
2023-01-27T21:38:53.770Z,5.35
2023-01-27T21:41:43.121Z,5.50
2023-01-27T21:44:34.482Z,5.93
2023-01-27T21:47:03.637Z,5.45
2023-01-27T21:49:55.810Z,5.93
2023-01-27T21:52:25.601Z,5.80
2023-01-27T21:54:54.547Z,5.50
2023-01-27T21:57:24.935Z,6.43
2023-01-27T21:59:53.889Z,5.63
2023-01-27T22:02:23.013Z,4.65
2023-01-27T22:04:51.934Z,5.38
2023-01-27T22:07:21.032Z,4.90
2023-01-27T22:09:50.109Z,4.90
2023-01-27T22:12:19.034Z,5.20
2023-01-27T22:14:49.605Z,5.00
2023-01-27T22:17:19.983Z,5.35
2023-01-27T22:19:49.142Z,5.47
2023-01-27T22:22:17.879Z,5.30
2023-01-27T22:24:46.643Z,5.07
2023-01-27T22:27:15.567Z,5.85
2023-01-27T22:29:44.496Z,5.20
2023-01-27T22:32:14.793Z,5.40
2023-01-27T22:34:44.559Z,5.28
2023-01-27T22:37:13.392Z,4.75
2023-01-27T22:39:42.336Z,5.07
2023-01-27T22:42:11.560Z,4.35
2023-01-27T22:44:40.415Z,5.13
2023-01-27T22:47:09.294Z,4.05
2023-01-27T22:49:39.440Z,4.82
2023-01-27T22:52:08.329Z,4.25
2023-01-27T22:54:37.628Z,4.70
2023-01-27T22:57:06.618Z,4.82
2023-01-27T22:59:35.566Z,3.83
2023-01-27T23:02:04.337Z,4.10
2023-01-27T23:04:33.314Z,4.50
2023-01-27T23:07:03.581Z,4.80
2023-01-27T23:09:33.387Z,4.70
2023-01-27T23:12:02.251Z,4.45
2023-01-27T23:14:31.145Z,4.25
2023-01-27T23:16:59.890Z,4.85
2023-01-27T23:19:28.626Z,4.57
2023-01-27T23:21:57.613Z,4.68
2023-01-27T23:24:27.972Z,4.38
2023-01-27T23:26:56.907Z,4.85
2023-01-27T23:29:27.262Z,4.10
2023-01-27T23:31:57.941Z,4.47
2023-01-27T23:34:26.830Z,4.72
2023-01-27T23:36:58.723Z,4.10
2023-01-27T23:39:28.921Z,4.93
2023-01-27T23:41:57.772Z,4.35
2023-01-27T23:44:26.623Z,4.20
2023-01-27T23:46:55.394Z,4.80
2023-01-27T23:49:24.431Z,4.78
2023-01-27T23:51:53.288Z,4.38
2023-01-27T23:54:22.315Z,4.68
2023-01-27T23:56:52.517Z,5.03
2023-01-27T23:59:21.408Z,4.50
